Time;durP1;ratioP1;P1;durP2;ratioP2;P2;SDS_P1;SDS_P2;PMS_P1;PMS_P2;Temp;Humidity;BMP_temperature;BMP_pressure;BME280_temperature;BME280_humidity;BME280_pressure;Samples;Min_cycle;Max_cycle;Signal;HPM_P1;HPM_P2
2022/05/10 00:04:58;;;;;;;0.10;0.10;;;;;;;12.96;76.64;102047.75;10248115;28;20015;-65
2022/05/10 00:10:00;;;;;;;0.10;0.10;;;;;;;12.89;77.09;102038.63;10247723;28;20015;-64
2022/05/10 00:15:00;;;;;;;0.10;0.10;;;;;;;12.85;77.28;102034.53;10287807;28;20027;-64
2022/05/10 00:20:02;;;;;;;0.10;0.10;;;;;;;12.80;77.44;102034.13;10249032;28;20109;-64
2022/05/10 00:25:03;;;;;;;0.10;0.10;;;;;;;12.73;77.40;102025.84;10252532;28;20505;-64
2022/05/10 00:30:06;;;;;;;0.10;0.10;;;;;;;12.65;77.89;102015.88;10256390;28;20027;-64
2022/05/10 00:35:15;;;;;;;0.00;0.00;;;;;;;12.58;78.49;102014.75;10247023;28;20094;-64
2022/05/10 00:40:20;;;;;;;0.00;0.00;;;;;;;12.51;78.83;102016.34;10247154;28;20043;-65
2022/05/10 00:45:39;;;;;;;0.00;0.00;;;;;;;12.42;79.63;102009.16;10249376;28;20438;-65
2022/05/10 00:51:08;;;;;;;0.10;0.10;;;;;;;12.33;80.55;101999.31;10250568;28;20442;-65
2022/05/10 00:56:18;;;;;;;0.10;0.10;;;;;;;12.30;80.29;102004.94;10251119;28;20423;-64
2022/05/10 01:01:26;;;;;;;0.10;0.10;;;;;;;12.26;80.50;101995.53;10246776;28;20035;-65
2022/05/10 01:06:33;;;;;;;0.10;0.10;;;;;;;12.26;80.65;101982.19;10251690;28;20478;-65
2022/05/10 01:11:45;;;;;;;0.10;0.10;;;;;;;12.19;81.41;101984.59;10259463;28;20019;-65
2022/05/10 01:16:46;;;;;;;0.10;0.10;;;;;;;12.15;81.32;101976.00;10250729;28;20035;-65
2022/05/10 01:22:16;;;;;;;0.10;0.10;;;;;;;12.16;81.48;101964.34;10247865;28;20016;-65
2022/05/10 01:27:57;;;;;;;0.00;0.00;;;;;;;12.20;81.38;101963.06;10254657;28;20027;-65
2022/05/10 01:33:30;;;;;;;0.10;0.10;;;;;;;12.24;81.13;101959.09;10222204;28;20478;-65
2022/05/10 01:38:33;;;;;;;0.10;0.10;;;;;;;12.33;81.31;101951.22;10254087;28;20108;-65
2022/05/10 01:43:43;;;;;;;0.00;0.00;;;;;;;12.40;80.59;101939.00;10258798;28;20110;-65
2022/05/10 01:48:49;;;;;;;0.00;0.00;;;;;;;12.40;80.98;101933.66;10254107;28;20027;-64
2022/05/10 01:53:49;;;;;;;0.00;0.00;;;;;;;12.45;80.29;101923.38;10257363;28;20102;-65
2022/05/10 01:58:49;;;;;;;0.08;0.08;;;;;;;12.55;80.09;101910.81;10255490;28;20441;-65
2022/05/10 02:04:08;;;;;;;0.03;0.03;;;;;;;12.54;80.77;101916.31;10253059;28;20093;-65
2022/05/10 02:09:25;;;;;;;0.05;0.05;;;;;;;12.49;81.36;101916.75;10254004;28;20029;-65
2022/05/10 02:14:34;;;;;;;0.10;0.10;;;;;;;12.50;81.93;101906.91;10290038;28;20018;-65
2022/05/10 02:19:50;;;;;;;0.10;0.10;;;;;;;12.54;82.44;101903.78;10265804;28;20031;-65
2022/05/10 02:24:57;;;;;;;0.10;0.10;;;;;;;12.60;81.30;101903.22;10263020;28;20030;-65
2022/05/10 02:30:06;;;;;;;0.00;0.00;;;;;;;12.57;81.48;101894.66;10252791;28;20023;-65
2022/05/10 02:35:09;;;;;;;0.10;0.10;;;;;;;12.53;81.96;101890.56;10251595;28;20020;-64
2022/05/10 02:40:10;;;;;;;0.05;0.05;;;;;;;12.47;82.21;101886.66;10251667;28;20051;-65
2022/05/10 02:45:12;;;;;;;0.10;0.10;;;;;;;12.41;81.82;101881.88;10251198;28;20023;-64
2022/05/10 02:50:24;;;;;;;0.05;0.05;;;;;;;12.40;81.44;101873.03;10251687;28;20099;-64
2022/05/10 02:55:36;;;;;;;0.05;0.05;;;;;;;12.35;81.86;101867.28;10260383;28;20031;-64
2022/05/10 03:00:36;;;;;;;0.10;0.10;;;;;;;12.34;82.80;101864.78;10251185;28;20031;-64
2022/05/10 03:05:36;;;;;;;0.00;0.00;;;;;;;12.33;82.93;101847.03;10250690;28;20027;-64
2022/05/10 03:10:37;;;;;;;0.10;0.10;;;;;;;12.39;82.29;101839.28;10250423;28;20282;-64
2022/05/10 03:15:37;;;;;;;0.10;0.10;;;;;;;12.43;82.80;101834.50;10249558;28;20829;-64
2022/05/10 03:20:37;;;;;;;0.10;0.10;;;;;;;12.43;83.50;101832.66;10251277;28;20042;-65
2022/05/10 03:25:38;;;;;;;0.10;0.10;;;;;;;12.37;84.02;101827.06;10255102;28;20035;-64
2022/05/10 03:30:38;;;;;;;0.05;0.05;;;;;;;12.34;84.81;101830.88;10282119;28;20030;-64
2022/05/10 03:35:39;;;;;;;0.00;0.00;;;;;;;12.38;83.84;101823.41;10288681;28;20505;-64
2022/05/10 03:40:39;;;;;;;0.00;0.00;;;;;;;12.43;84.42;101821.13;10289785;28;20030;-64
2022/05/10 03:45:39;;;;;;;0.00;0.00;;;;;;;12.46;84.81;101818.16;10251909;28;20027;-64
2022/05/10 03:50:40;;;;;;;0.00;0.00;;;;;;;12.48;84.73;101816.19;10248147;28;20035;-64
2022/05/10 03:55:40;;;;;;;0.10;0.10;;;;;;;12.51;84.39;101813.22;10262512;28;20093;-64
2022/05/10 04:00:40;;;;;;;0.10;0.10;;;;;;;12.56;84.83;101816.28;10288321;28;20045;-64
2022/05/10 04:05:41;;;;;;;0.00;0.00;;;;;;;12.62;84.30;101810.38;10288121;28;20112;-64
2022/05/10 04:10:42;;;;;;;0.10;0.10;;;;;;;12.70;84.16;101806.94;10288016;28;20035;-64
2022/05/10 04:15:42;;;;;;;0.10;0.10;;;;;;;12.83;83.71;101806.59;10287858;28;20050;-64
2022/05/10 04:20:42;;;;;;;0.10;0.10;;;;;;;12.92;83.68;101803.00;10287969;28;20031;-64
2022/05/10 04:25:43;;;;;;;0.03;0.03;;;;;;;12.98;83.34;101791.72;10293046;22;20489;-63
2022/05/10 04:30:43;;;;;;;0.00;0.00;;;;;;;13.07;83.36;101792.63;10298145;28;20034;-62
2022/05/10 04:35:44;;;;;;;0.10;0.10;;;;;;;13.14;82.94;101796.38;10311124;28;20499;-62
2022/05/10 04:46:05;;;;;;;0.10;0.10;;;;;;;13.30;83.07;101788.53;10305811;28;20019;-60
2022/05/10 04:51:06;;;;;;;0.10;0.10;;;;;;;13.41;83.05;101783.94;10287300;28;20019;-63
2022/05/10 04:56:06;;;;;;;0.10;0.10;;;;;;;13.60;81.54;101783.75;10304683;28;20533;-63
2022/05/10 05:01:09;;;;;;;0.10;0.10;;;;;;;13.81;81.42;101786.09;10299083;28;20409;-63
2022/05/10 05:06:10;;;;;;;0.10;0.10;;;;;;;13.94;81.23;101781.16;10324420;28;20018;-63
2022/05/10 05:11:10;;;;;;;0.10;0.10;;;;;;;14.11;80.95;101798.19;10307208;28;20030;-61
2022/05/10 05:16:10;;;;;;;0.10;0.10;;;;;;;14.49;80.09;101791.50;10312532;28;20027;-62
2022/05/10 05:21:11;;;;;;;0.10;0.10;;;;;;;14.70;78.25;101792.94;10293200;28;20418;-62
2022/05/10 05:26:12;;;;;;;0.10;0.10;;;;;;;14.96;78.27;101786.66;10294994;28;20113;-63
2022/05/10 05:31:13;;;;;;;0.10;0.10;;;;;;;15.35;77.14;101787.69;10298802;28;20021;-63
2022/05/10 05:36:13;;;;;;;0.10;0.10;;;;;;;15.71;76.00;101786.56;10299159;28;20478;-62
2022/05/10 05:41:14;;;;;;;0.10;0.10;;;;;;;16.14;72.93;101792.50;10310481;28;20045;-62
2022/05/10 05:46:14;;;;;;;0.10;0.10;;;;;;;16.94;71.21;101782.44;10299308;28;20022;-62
2022/05/10 05:51:15;;;;;;;0.10;0.10;;;;;;;17.86;68.50;101786.94;10302576;28;20023;-63
2022/05/10 05:56:15;;;;;;;0.10;0.10;;;;;;;18.60;65.17;101792.31;10300804;28;20467;-61
2022/05/10 06:01:16;;;;;;;0.10;0.10;;;;;;;19.36;63.73;101786.50;10291716;28;20274;-61
2022/05/10 06:06:16;;;;;;;0.00;0.00;;;;;;;19.78;60.33;101787.50;10297323;28;20058;-62
2022/05/10 06:11:17;;;;;;;0.10;0.10;;;;;;;19.27;62.16;101782.28;10290367;28;20105;-63
2022/05/10 06:16:17;;;;;;;0.00;0.00;;;;;;;18.90;64.43;101776.91;10304482;28;20023;-62
2022/05/10 06:21:17;;;;;;;0.00;0.00;;;;;;;18.66;66.02;101775.38;10309145;28;20612;-62
2022/05/10 06:26:18;;;;;;;0.00;0.00;;;;;;;18.65;65.82;101773.72;10296536;28;20034;-63
2022/05/10 06:31:18;;;;;;;0.10;0.10;;;;;;;18.82;66.88;101766.25;10299544;28;20035;-63
2022/05/10 06:36:18;;;;;;;0.00;0.00;;;;;;;19.22;64.67;101755.84;10312368;28;20494;-62
2022/05/10 06:41:19;;;;;;;0.00;0.00;;;;;;;19.43;65.72;101761.25;10298230;28;20075;-62
2022/05/10 06:46:21;;;;;;;0.03;0.03;;;;;;;20.18;62.57;101761.56;10301281;28;20022;-63
2022/05/10 06:51:23;;;;;;;0.05;0.05;;;;;;;21.53;60.10;101742.78;10312036;28;20026;-64
2022/05/10 06:56:23;;;;;;;0.00;0.00;;;;;;;22.45;56.39;101739.00;10303001;28;20030;-64
2022/05/10 07:01:24;;;;;;;0.00;0.00;;;;;;;22.68;55.63;101741.19;10294368;28;20497;-63
2022/05/10 07:06:24;;;;;;;0.00;0.00;;;;;;;22.40;54.37;101738.00;10298431;28;20046;-63
2022/05/10 07:11:24;;;;;;;0.00;0.00;;;;;;;22.26;56.20;101732.63;10299066;28;20046;-63
2022/05/10 07:16:25;;;;;;;0.10;0.10;;;;;;;21.86;57.61;101721.88;10322099;28;20477;-63
2022/05/10 07:21:25;;;;;;;0.00;0.00;;;;;;;21.89;56.97;101716.03;10313989;28;20030;-64
2022/05/10 07:26:26;;;;;;;0.00;0.00;;;;;;;21.72;58.03;101722.13;10299698;28;20429;-63
2022/05/10 07:31:26;;;;;;;0.00;0.00;;;;;;;21.78;60.01;101718.56;10312994;28;20097;-65
2022/05/10 07:36:33;;;;;;;0.00;0.00;;;;;;;21.85;58.02;101713.97;10303018;28;20069;-64
2022/05/10 07:41:34;;;;;;;0.00;0.00;;;;;;;21.78;58.74;101722.09;10312961;28;20029;-64
2022/05/10 07:46:34;;;;;;;0.00;0.00;;;;;;;21.63;59.40;101716.06;10312266;28;20412;-64
2022/05/10 07:51:34;;;;;;;0.00;0.00;;;;;;;21.53;59.02;101710.28;10313621;28;20038;-63
2022/05/10 07:56:37;;;;;;;0.00;0.00;;;;;;;21.56;60.25;101715.28;10300367;28;20045;-64
2022/05/10 08:01:37;;;;;;;0.00;0.00;;;;;;;21.68;59.57;101716.28;10300233;28;20133;-64
2022/05/10 08:06:37;;;;;;;0.00;0.00;;;;;;;21.89;60.36;101709.75;10298483;28;20310;-65
2022/05/10 08:11:39;;;;;;;0.00;0.00;;;;;;;21.78;58.63;101710.41;10304608;28;20034;-64
2022/05/10 08:16:39;;;;;;;0.10;0.10;;;;;;;21.54;60.42;101707.34;10309552;28;20503;-63
2022/05/10 08:21:40;;;;;;;0.10;0.10;;;;;;;21.32;60.08;101700.44;10317664;28;20158;-64
2022/05/10 08:26:40;;;;;;;0.00;0.00;;;;;;;21.18;61.89;101705.88;10304487;28;20693;-63
2022/05/10 08:31:40;;;;;;;0.00;0.00;;;;;;;21.24;62.04;101698.78;10295406;28;20077;-64
2022/05/10 08:36:41;;;;;;;0.00;0.00;;;;;;;21.52;61.20;101706.69;10297457;28;20398;-64
2022/05/10 08:41:49;;;;;;;0.10;0.10;;;;;;;22.23;60.15;101700.50;10290711;28;20505;-64
2022/05/10 08:46:54;;;;;;;0.10;0.10;;;;;;;23.01;58.80;101703.00;10294863;28;20093;-64
2022/05/10 08:51:55;;;;;;;0.00;0.00;;;;;;;23.80;54.91;101691.66;10310225;28;20026;-64
2022/05/10 08:57:24;;;;;;;0.00;0.00;;;;;;;24.74;53.92;101692.13;10306018;28;20089;-63
2022/05/10 09:02:49;;;;;;;0.00;0.00;;;;;;;25.38;50.31;101686.91;10311149;28;20500;-65
2022/05/10 09:08:05;;;;;;;0.10;0.10;;;;;;;25.92;48.76;101676.69;10300014;28;20042;-65
2022/05/10 09:13:10;;;;;;;0.00;0.00;;;;;;;26.13;48.01;101670.56;10294227;28;20098;-65
2022/05/10 09:18:36;;;;;;;0.10;0.10;;;;;;;26.13;46.27;101665.13;10308829;28;20401;-64
2022/05/10 09:23:42;;;;;;;0.00;0.00;;;;;;;26.30;45.63;101664.34;10310536;28;20442;-65
2022/05/10 09:28:51;;;;;;;0.00;0.00;;;;;;;26.47;46.11;101647.97;10301279;28;20113;-65
2022/05/10 09:39:34;;;;;;;0.00;0.00;;;;;;;26.64;41.37;101641.50;10319622;28;20054;-65
2022/05/10 09:44:35;;;;;;;0.00;0.00;;;;;;;26.70;45.76;101622.47;10323257;28;20022;-64
2022/05/10 09:49:37;;;;;;;0.00;0.00;;;;;;;26.97;40.92;101617.19;10318986;28;20054;-68
2022/05/10 09:54:41;;;;;;;0.10;0.10;;;;;;;27.01;40.81;101613.69;10325184;28;20474;-68
2022/05/10 09:59:46;;;;;;;0.10;0.10;;;;;;;26.97;40.03;101606.25;10318869;28;20053;-68
2022/05/10 10:04:48;;;;;;;0.00;0.00;;;;;;;26.82;40.21;101609.53;10331861;28;20026;-69
2022/05/10 10:09:51;;;;;;;0.10;0.10;;;;;;;26.71;41.07;101592.16;10332460;28;20492;-68
2022/05/10 10:14:52;;;;;;;0.00;0.00;;;;;;;26.33;40.39;101584.66;10318388;28;20474;-68
2022/05/10 10:20:12;;;;;;;0.10;0.10;;;;;;;25.99;39.99;101576.38;10326660;28;20038;-68
2022/05/10 10:25:28;;;;;;;0.10;0.10;;;;;;;25.89;40.85;101557.91;10346152;22;20046;-67
2022/05/10 10:30:36;;;;;;;0.03;0.03;;;;;;;26.47;37.96;101564.16;10288928;28;20061;-68
2022/05/10 10:35:47;;;;;;;0.00;0.00;;;;;;;26.20;37.26;101556.56;10277633;28;20031;-68
2022/05/10 10:41:08;;;;;;;0.00;0.00;;;;;;;26.26;39.51;101552.03;10278781;28;20062;-68
2022/05/10 10:46:32;;;;;;;0.00;0.00;;;;;;;26.51;41.24;101543.47;10278715;28;20022;-68
2022/05/10 10:51:33;;;;;;;0.00;0.00;;;;;;;26.35;38.29;101536.88;10273675;28;20019;-68
2022/05/10 10:56:42;;;;;;;0.00;0.00;;;;;;;26.19;40.69;101522.16;10268857;28;20027;-67
2022/05/10 11:01:56;;;;;;;0.00;0.00;;;;;;;26.27;39.79;101523.66;10292101;28;20027;-66
2022/05/10 11:06:56;;;;;;;0.10;0.10;;;;;;;26.19;38.25;101524.06;10275640;28;20023;-69
2022/05/10 11:12:22;;;;;;;0.00;0.00;;;;;;;26.04;37.65;101521.06;10253667;28;20023;-69
2022/05/10 11:17:42;;;;;;;0.10;0.10;;;;;;;26.04;37.20;101508.25;10263993;28;20514;-68
2022/05/10 11:22:56;;;;;;;0.10;0.10;;;;;;;26.01;38.25;101506.00;10262460;28;20391;-68
2022/05/10 11:28:23;;;;;;;0.10;0.10;;;;;;;25.98;38.37;101492.84;10292700;28;20035;-68
2022/05/10 11:33:29;;;;;;;0.10;0.10;;;;;;;26.13;38.35;101487.66;10258342;28;20513;-69
2022/05/10 11:39:07;;;;;;;0.10;0.10;;;;;;;25.65;36.70;101485.38;10255771;28;20028;-68
2022/05/10 11:44:55;;;;;;;0.10;0.10;;;;;;;25.33;38.09;101480.38;10267259;28;20033;-68
2022/05/10 11:50:27;;;;;;;0.10;0.10;;;;;;;25.16;40.19;101476.75;10250137;28;20027;-68
2022/05/10 11:55:49;;;;;;;0.10;0.10;;;;;;;25.11;38.53;101463.00;10274120;28;20386;-69
2022/05/10 12:01:14;;;;;;;0.00;0.00;;;;;;;25.13;39.91;101458.94;10264607;28;20781;-68
2022/05/10 12:06:23;;;;;;;0.10;0.10;;;;;;;25.11;40.75;101455.66;10247369;28;20503;-68
2022/05/10 12:11:39;;;;;;;0.00;0.00;;;;;;;25.12;40.46;101443.66;10267170;28;20044;-68
2022/05/10 12:22:05;;;;;;;0.00;0.00;;;;;;;25.23;43.28;101425.66;10281380;28;20026;-69
2022/05/10 12:27:11;;;;;;;0.10;0.10;;;;;;;25.21;41.96;101416.91;10262484;28;20038;-68
2022/05/10 12:32:36;;;;;;;0.10;0.10;;;;;;;25.14;41.14;101413.50;10253317;28;20034;-69
2022/05/10 12:37:48;;;;;;;0.10;0.10;;;;;;;25.32;41.41;101416.03;10254304;28;20154;-68
2022/05/10 12:43:23;;;;;;;0.00;0.00;;;;;;;25.48;43.59;101392.59;10247677;28;20390;-67
2022/05/10 12:48:43;;;;;;;0.00;0.00;;;;;;;25.51;41.42;101382.03;10248742;28;20058;-68
2022/05/10 12:53:54;;;;;;;0.00;0.00;;;;;;;25.48;42.64;101376.22;10262364;28;20027;-67
2022/05/10 12:59:06;;;;;;;0.10;0.10;;;;;;;25.43;42.76;101367.97;10280323;28;20030;-67
2022/05/10 13:04:13;;;;;;;;;;;;;;;25.34;41.54;101356.63;10261314;28;20020;-68
2022/05/10 13:09:32;;;;;;;0.00;0.00;;;;;;;24.94;42.23;101352.00;10280638;28;19957;-69
2022/05/10 13:14:41;;;;;;;0.00;0.00;;;;;;;24.48;41.30;101361.94;10253776;28;20055;-69
2022/05/10 13:19:43;;;;;;;0.10;0.10;;;;;;;24.06;44.74;101377.56;10269806;28;20031;-67
2022/05/10 13:24:45;;;;;;;0.00;0.00;;;;;;;23.62;47.46;101376.97;10275120;28;20513;-67
2022/05/10 13:29:50;;;;;;;0.00;0.00;;;;;;;23.15;48.19;101393.91;10263851;28;20399;-67
2022/05/10 13:34:52;;;;;;;0.00;0.00;;;;;;;22.74;53.22;101406.28;10265605;28;20034;-68
2022/05/10 13:39:53;;;;;;;0.00;0.00;;;;;;;22.26;55.84;101414.31;10260241;28;20427;-66
2022/05/10 13:44:53;;;;;;;0.10;0.10;;;;;;;21.92;57.05;101373.84;10266556;28;20117;-68
2022/05/10 13:49:53;;;;;;;0.00;0.00;;;;;;;21.88;57.91;101360.97;10254114;28;20414;-67
2022/05/10 13:54:56;;;;;;;0.10;0.10;;;;;;;21.73;61.83;101363.16;10256799;28;20043;-68
2022/05/10 14:00:12;;;;;;;;;;;;;;;21.48;64.02;101375.63;10273100;28;20026;-68
2022/05/10 14:05:16;;;;;;;0.00;0.00;;;;;;;21.18;65.87;101353.69;10282836;28;19914;-67
2022/05/10 14:10:19;;;;;;;0.00;0.00;;;;;;;21.16;68.83;101338.69;10284520;28;20026;-67
2022/05/10 14:15:31;;;;;;;0.00;0.00;;;;;;;21.29;68.96;101291.72;10275886;28;20378;-68
2022/05/10 14:20:35;;;;;;;0.00;0.00;;;;;;;21.45;70.09;101304.78;10252392;28;20038;-67
2022/05/10 14:25:36;;;;;;;0.00;0.00;;;;;;;21.52;69.25;101289.28;10272514;28;20051;-66
2022/05/10 14:30:44;;;;;;;0.00;0.00;;;;;;;21.51;69.87;101284.94;10276851;28;20537;-65
2022/05/10 14:36:00;;;;;;;0.00;0.00;;;;;;;21.45;70.53;101286.63;10277586;28;20106;-66
2022/05/10 14:41:01;;;;;;;0.10;0.10;;;;;;;21.36;69.87;101273.56;10284366;28;20117;-67
2022/05/10 14:46:44;;;;;;;0.00;0.00;;;;;;;21.35;69.49;101248.34;10278697;28;20134;-67
2022/05/10 14:51:45;;;;;;;0.10;0.10;;;;;;;21.31;68.19;101241.69;10261730;28;20046;-70
2022/05/10 14:56:55;;;;;;;0.08;0.08;;;;;;;21.31;68.25;101227.31;10254517;28;20477;-68
2022/05/10 15:01:55;;;;;;;0.00;0.00;;;;;;;21.46;67.93;101230.56;10268543;28;20027;-65
2022/05/10 15:06:55;;;;;;;0.00;0.00;;;;;;;21.52;68.51;101220.72;10270345;28;20019;-66
2022/05/10 15:17:16;;;;;;;0.00;0.00;;;;;;;21.14;69.37;101222.44;10277991;28;20027;-66
2022/05/10 15:22:17;;;;;;;0.00;0.00;;;;;;;21.07;70.36;101210.00;10261290;28;20535;-66
2022/05/10 15:27:20;;;;;;;0.00;0.00;;;;;;;21.16;72.58;101206.78;10265396;28;20031;-66
2022/05/10 15:32:20;;;;;;;0.00;0.00;;;;;;;21.15;73.53;101207.84;10294187;28;20286;-65
2022/05/10 15:37:24;;;;;;;0.10;0.10;;;;;;;20.97;74.76;101229.41;10245755;29;20027;-66
2022/05/10 15:42:28;;;;;;;0.00;0.00;;;;;;;20.73;76.18;101286.00;10249204;29;20034;-65
2022/05/10 15:47:33;;;;;;;0.00;0.00;;;;;;;20.07;83.27;101259.13;10249545;28;20035;-65
2022/05/10 15:52:34;;;;;;;0.10;0.10;;;;;;;19.42;88.80;101269.75;10252878;28;20050;-65
2022/05/10 15:57:34;;;;;;;0.00;0.00;;;;;;;19.00;91.23;101267.19;10254377;28;20035;-66
2022/05/10 16:02:35;;;;;;;0.10;0.10;;;;;;;18.84;93.71;101270.25;10249692;29;20026;-65
2022/05/10 16:07:35;;;;;;;0.00;0.00;;;;;;;18.69;93.01;101269.56;10249707;28;20034;-63
2022/05/10 16:12:39;;;;;;;0.13;0.13;;;;;;;18.53;95.19;101290.47;10278698;28;20177;-64
2022/05/10 16:17:39;;;;;;;;;;;;;;;18.34;94.99;101299.28;10287454;28;20023;-65
2022/05/10 16:22:39;;;;;;;0.10;0.10;;;;;;;17.79;93.52;101325.22;10277254;28;19910;-65
2022/05/10 16:33:04;;;;;;;0.10;0.10;;;;;;;16.39;92.78;101320.91;10287840;28;20118;-65
2022/05/10 16:38:09;;;;;;;0.10;0.10;;;;;;;16.09;95.94;101325.44;10284090;28;20026;-63
2022/05/10 16:43:14;;;;;;;0.10;0.10;;;;;;;15.75;95.65;101326.72;10248466;28;20039;-65
2022/05/10 16:48:17;;;;;;;0.10;0.10;;;;;;;15.54;93.94;101346.19;10245299;28;20023;-65
2022/05/10 16:53:18;;;;;;;0.10;0.10;;;;;;;15.40;95.96;101355.81;10246780;28;20414;-63
2022/05/10 16:58:18;;;;;;;0.10;0.10;;;;;;;15.34;98.07;101395.97;10348717;22;20040;-63
2022/05/10 17:03:19;;;;;;;0.00;0.00;;;;;;;15.28;100.00;101402.88;10405942;28;20490;-62
2022/05/10 17:08:20;;;;;;;0.05;0.05;;;;;;;15.19;100.00;101419.22;10406791;28;20256;-62
2022/05/10 17:13:21;;;;;;;0.10;0.10;;;;;;;15.09;100.00;101427.44;10407998;28;20025;-63
2022/05/10 17:18:22;;;;;;;0.10;0.10;;;;;;;15.01;100.00;101419.44;10407343;28;20025;-60
2022/05/10 17:23:22;;;;;;;0.10;0.10;;;;;;;14.93;100.00;101434.56;10407824;28;20079;-62
2022/05/10 17:33:41;;;;;;;0.10;0.10;;;;;;;14.66;100.00;101421.53;10407721;28;20026;-62
2022/05/10 17:38:42;;;;;;;0.10;0.10;;;;;;;14.50;100.00;101415.19;10407386;28;20029;-62
2022/05/10 17:43:43;;;;;;;0.10;0.10;;;;;;;14.33;100.00;101413.53;10402590;28;20026;-66
2022/05/10 17:48:43;;;;;;;0.10;0.10;;;;;;;14.24;100.00;101431.47;10402612;28;20018;-62
2022/05/10 17:53:48;;;;;;;0.10;0.10;;;;;;;14.20;100.00;101423.97;10406061;28;20055;-62
2022/05/10 17:58:49;;;;;;;;;;;;;;;14.09;100.00;101403.69;10407196;28;20130;-64
2022/05/10 18:03:50;;;;;;;0.10;0.10;;;;;;;14.00;100.00;101389.47;10404459;28;20408;-64
2022/05/10 18:08:50;;;;;;;0.10;0.10;;;;;;;13.95;100.00;101358.81;10406869;28;20021;-63
2022/05/10 18:13:56;;;;;;;0.10;0.10;;;;;;;13.92;100.00;101389.47;10412666;28;20013;-64
2022/05/10 18:18:56;;;;;;;0.00;0.00;;;;;;;13.87;100.00;101383.75;10414245;28;20264;-67
2022/05/10 18:23:58;;;;;;;0.10;0.10;;;;;;;13.89;100.00;101376.41;10415669;28;20021;-64
2022/05/10 18:28:58;;;;;;;0.10;0.10;;;;;;;13.90;100.00;101387.94;10413786;28;20060;-62
2022/05/10 18:33:59;;;;;;;0.10;0.10;;;;;;;13.88;100.00;101363.19;10411453;28;20415;-63
2022/05/10 18:38:59;;;;;;;0.10;0.10;;;;;;;13.83;100.00;101361.00;10412890;28;20025;-63
2022/05/10 18:43:59;;;;;;;0.00;0.00;;;;;;;13.76;100.00;101349.31;10413191;28;20024;-63
2022/05/10 18:49:00;;;;;;;0.10;0.10;;;;;;;13.74;100.00;101367.38;10413696;28;20021;-66
2022/05/10 18:54:00;;;;;;;0.10;0.10;;;;;;;13.75;100.00;101385.94;10413129;28;20376;-65
2022/05/10 18:59:02;;;;;;;0.10;0.10;;;;;;;13.71;100.00;101399.84;10412739;28;20025;-64
2022/05/10 19:04:03;;;;;;;0.10;0.10;;;;;;;13.68;100.00;101413.56;10411588;28;20024;-67
2022/05/10 19:09:03;;;;;;;0.10;0.10;;;;;;;13.61;100.00;101377.72;10415932;28;20013;-63
2022/05/10 19:14:04;;;;;;;0.10;0.10;;;;;;;13.47;100.00;101372.03;10410901;28;20029;-63
2022/05/10 19:19:04;;;;;;;0.10;0.10;;;;;;;13.35;100.00;101357.25;10413607;28;20029;-63
2022/05/10 19:24:05;;;;;;;0.10;0.10;;;;;;;13.32;100.00;101395.06;10410259;28;20024;-65
2022/05/10 19:29:05;;;;;;;0.10;0.10;;;;;;;13.29;100.00;101398.06;10411515;28;20027;-65
2022/05/10 19:34:08;;;;;;;0.10;0.10;;;;;;;13.24;100.00;101408.41;10409019;28;20384;-69
2022/05/10 19:39:11;;;;;;;0.10;0.10;;;;;;;13.16;100.00;101392.31;10408049;28;20481;-68
2022/05/10 19:44:12;;;;;;;0.00;0.00;;;;;;;13.04;100.00;101400.63;10410499;28;20105;-68
2022/05/10 19:49:12;;;;;;;0.10;0.10;;;;;;;12.84;100.00;101415.25;10410187;28;20080;-63
2022/05/10 19:54:13;;;;;;;0.10;0.10;;;;;;;12.60;100.00;101414.13;10410033;28;20534;-68
2022/05/10 19:59:13;;;;;;;0.10;0.10;;;;;;;12.44;100.00;101422.03;10411023;28;20033;-64
2022/05/10 20:09:32;;;;;;;0.10;0.10;;;;;;;12.13;100.00;101414.47;10410905;28;20038;-68
2022/05/10 20:14:33;;;;;;;0.10;0.10;;;;;;;12.02;100.00;101428.06;10408830;28;20468;-68
2022/05/10 20:19:34;;;;;;;0.10;0.10;;;;;;;11.90;100.00;101429.28;10410143;28;20112;-66
2022/05/10 20:24:35;;;;;;;0.00;0.00;;;;;;;11.77;100.00;101441.13;10408801;28;20021;-66
2022/05/10 20:29:35;;;;;;;0.08;0.08;;;;;;;11.69;100.00;101427.72;10409552;28;20037;-63
2022/05/10 20:34:35;;;;;;;0.10;0.10;;;;;;;11.60;100.00;101431.28;10407570;28;20017;-63
2022/05/10 20:39:36;;;;;;;0.10;0.10;;;;;;;11.51;100.00;101425.03;10404754;28;20029;-64
2022/05/10 20:44:36;;;;;;;0.10;0.10;;;;;;;11.47;100.00;101414.81;10406680;28;20067;-64
2022/05/10 20:49:37;;;;;;;0.10;0.10;;;;;;;11.41;100.00;101402.91;10408384;28;20028;-63
2022/05/10 20:54:37;;;;;;;0.00;0.00;;;;;;;11.37;100.00;101401.53;10407439;28;20276;-63
2022/05/10 20:59:38;;;;;;;0.00;0.00;;;;;;;11.38;100.00;101392.56;10407807;28;20025;-64
2022/05/10 21:04:38;;;;;;;0.10;0.10;;;;;;;11.39;100.00;101388.88;10405974;28;20029;-63
2022/05/10 21:09:39;;;;;;;0.10;0.10;;;;;;;11.39;100.00;101383.56;10407593;28;20030;-64
2022/05/10 21:14:39;;;;;;;0.10;0.10;;;;;;;11.35;100.00;101368.84;10406993;28;20365;-64
2022/05/10 21:19:40;;;;;;;0.03;0.03;;;;;;;11.30;100.00;101360.47;10406204;28;20509;-64
2022/05/10 21:24:40;;;;;;;0.10;0.10;;;;;;;11.28;100.00;101370.44;10406751;28;20032;-64
2022/05/10 21:35:03;;;;;;;0.00;0.00;;;;;;;11.14;100.00;101369.13;10406631;28;20017;-64
2022/05/10 21:40:04;;;;;;;0.05;0.05;;;;;;;11.08;100.00;101354.56;10407361;28;20025;-64
2022/05/10 21:45:06;;;;;;;0.10;0.10;;;;;;;10.96;100.00;101341.59;10408197;28;20023;-64
2022/05/10 21:50:13;;;;;;;0.08;0.08;;;;;;;10.90;100.00;101348.34;10415913;28;20021;-63
2022/05/10 21:55:13;;;;;;;0.10;0.10;;;;;;;10.81;100.00;101347.41;10414606;28;20018;-64
2022/05/10 22:00:18;;;;;;;0.10;0.10;;;;;;;10.63;100.00;101344.69;10415393;28;20040;-65
2022/05/10 22:05:18;;;;;;;0.03;0.03;;;;;;;10.60;100.00;101339.66;10413686;28;20271;-65
2022/05/10 22:10:19;;;;;;;0.00;0.00;;;;;;;10.52;100.00;101326.22;10415225;28;20050;-63
2022/05/10 22:15:24;;;;;;;0.00;0.00;;;;;;;10.48;100.00;101337.34;10413624;28;20864;-64
2022/05/10 22:20:25;;;;;;;0.10;0.10;;;;;;;10.45;100.00;101325.16;10415342;28;20030;-64
2022/05/10 22:25:25;;;;;;;0.10;0.10;;;;;;;10.43;100.00;101325.28;10413700;28;20021;-64
2022/05/10 22:30:26;;;;;;;0.00;0.00;;;;;;;10.42;100.00;101320.13;10414191;28;20022;-67
2022/05/10 22:35:27;;;;;;;0.10;0.10;;;;;;;10.41;100.00;101321.06;10411991;28;20067;-66
2022/05/10 22:40:27;;;;;;;0.00;0.00;;;;;;;10.46;100.00;101323.31;10413434;28;20095;-63
2022/05/10 22:45:27;;;;;;;0.00;0.00;;;;;;;10.51;100.00;101318.41;10413100;28;20014;-68
2022/05/10 22:50:28;;;;;;;0.00;0.00;;;;;;;10.53;100.00;101313.75;10413293;28;20041;-69
2022/05/10 22:55:28;;;;;;;0.00;0.00;;;;;;;10.57;100.00;101315.97;10410447;28;20021;-64
2022/05/10 23:00:29;;;;;;;0.00;0.00;;;;;;;10.55;100.00;101306.44;10411787;28;20021;-63
2022/05/10 23:05:29;;;;;;;0.00;0.00;;;;;;;10.56;100.00;101300.13;10412028;28;20260;-63
2022/05/10 23:10:29;;;;;;;0.00;0.00;;;;;;;10.58;100.00;101303.50;10415357;28;20384;-63
2022/05/10 23:15:30;;;;;;;0.00;0.00;;;;;;;10.61;100.00;101313.84;10414464;28;20021;-66
2022/05/10 23:20:30;;;;;;;0.00;0.00;;;;;;;10.57;100.00;101305.31;10414157;28;20624;-67
2022/05/10 23:25:31;;;;;;;0.00;0.00;;;;;;;10.36;100.00;101294.91;10414232;28;20017;-63
2022/05/10 23:30:31;;;;;;;0.10;0.10;;;;;;;10.33;100.00;101300.53;10414360;28;20379;-62
2022/05/10 23:35:32;;;;;;;0.00;0.00;;;;;;;10.30;100.00;101292.00;10417476;28;20016;-62
2022/05/10 23:40:33;;;;;;;0.10;0.10;;;;;;;10.29;100.00;101291.13;10413839;28;20040;-67
2022/05/10 23:45:33;;;;;;;0.10;0.10;;;;;;;10.23;100.00;101301.50;10412631;28;20388;-68
2022/05/10 23:50:45;;;;;;;0.00;0.00;;;;;;;10.17;100.00;101300.25;10413375;28;20049;-66
2022/05/10 23:55:46;;;;;;;0.10;0.10;;;;;;;10.12;100.00;101308.69;10410163;28;20092;-67
